Time;durP1;ratioP1;P1;durP2;ratioP2;P2;SDS_P1;SDS_P2;PMS_P1;PMS_P2;Temp;Humidity;BMP_temperature;BMP_pressure;BME280_temperature;BME280_humidity;BME280_pressure;Samples;Min_cycle;Max_cycle;Signal;HPM_P1;HPM_P2
2023/12/12 00:00:36;;;;;;;5.20;2.33;;;;;;;;;;6305513;22;20236;-78
2023/12/12 00:03:03;;;;;;;6.90;2.80;;;;;;;;;;6304994;22;20232;-79
2023/12/12 00:05:30;;;;;;;10.07;2.37;;;;;;;;;;6305261;22;20800;-78
2023/12/12 00:07:58;;;;;;;5.57;2.40;;;;;;;;;;6305063;22;20923;-78
2023/12/12 00:10:25;;;;;;;7.53;2.60;;;;;;;;;;6305206;22;20170;-78
2023/12/12 00:12:54;;;;;;;10.90;2.97;;;;;;;;;;6305759;22;20201;-79
2023/12/12 00:15:21;;;;;;;7.43;3.53;;;;;;;;;;6305611;22;20272;-78
2023/12/12 00:17:48;;;;;;;8.93;3.37;;;;;;;;;;6304516;22;20248;-79
2023/12/12 00:20:15;;;;;;;10.80;3.43;;;;;;;;;;6305456;22;20193;-78
2023/12/12 00:22:42;;;;;;;8.80;3.30;;;;;;;;;;6304736;22;20602;-78
2023/12/12 00:25:10;;;;;;;10.03;4.30;;;;;;;;;;6305646;22;20664;-79
2023/12/12 00:27:37;;;;;;;8.70;4.67;;;;;;;;;;6305409;22;20559;-78
2023/12/12 00:30:06;;;;;;;11.17;5.00;;;;;;;;;;6305255;22;20252;-79
2023/12/12 00:32:34;;;;;;;9.37;4.63;;;;;;;;;;6304567;22;20194;-79
2023/12/12 00:35:01;;;;;;;10.17;5.37;;;;;;;;;;6305916;22;20224;-79
2023/12/12 00:37:28;;;;;;;14.87;5.27;;;;;;;;;;6305448;22;20216;-79
2023/12/12 00:39:55;;;;;;;12.03;5.00;;;;;;;;;;6304936;22;20174;-79
2023/12/12 00:42:23;;;;;;;9.80;5.20;;;;;;;;;;6305184;22;20240;-79
2023/12/12 00:44:50;;;;;;;9.47;5.33;;;;;;;;;;6305421;22;20177;-79
2023/12/12 00:47:18;;;;;;;8.70;5.10;;;;;;;;;;6304630;22;20205;-78
2023/12/12 00:49:45;;;;;;;9.27;5.10;;;;;;;;;;6305225;22;20170;-78
2023/12/12 00:52:12;;;;;;;13.03;6.10;;;;;;;;;;6305110;22;20545;-78
2023/12/12 00:54:40;;;;;;;11.67;5.77;;;;;;;;;;6304888;22;20245;-79
2023/12/12 00:57:07;;;;;;;12.33;6.07;;;;;;;;;;6305162;22;20205;-78
2023/12/12 00:59:34;;;;;;;13.57;6.17;;;;;;;;;;6305347;22;20684;-79
2023/12/12 01:02:01;;;;;;;9.50;6.27;;;;;;;;;;6307071;22;20589;-79
2023/12/12 01:04:34;;;;;;;7.97;5.50;;;;;;;;;;6306374;22;20186;-78
2023/12/12 01:07:01;;;;;;;10.30;6.43;;;;;;;;;;6306655;22;20176;-79
2023/12/12 01:09:29;;;;;;;13.50;6.77;;;;;;;;;;6307551;22;20205;-78
2023/12/12 01:11:56;;;;;;;9.93;5.60;;;;;;;;;;6306902;22;20176;-79
2023/12/12 01:14:23;;;;;;;11.07;5.93;;;;;;;;;;6307037;22;20262;-79
2023/12/12 01:16:50;;;;;;;8.07;5.37;;;;;;;;;;6306994;22;20170;-78
2023/12/12 01:19:17;;;;;;;10.10;5.70;;;;;;;;;;6306615;22;20209;-79
2023/12/12 01:21:46;;;;;;;9.67;6.27;;;;;;;;;;6306720;22;20233;-79
2023/12/12 01:24:13;;;;;;;9.93;5.93;;;;;;;;;;6307032;22;20198;-79
2023/12/12 01:26:40;;;;;;;13.73;5.50;;;;;;;;;;6307064;22;20655;-78
2023/12/12 01:29:07;;;;;;;8.40;5.43;;;;;;;;;;6306023;22;20712;-79
2023/12/12 01:31:34;;;;;;;9.17;5.23;;;;;;;;;;6306653;22;20633;-78
2023/12/12 01:34:01;;;;;;;9.53;4.90;;;;;;;;;;6306589;22;20636;-79
2023/12/12 01:36:29;;;;;;;10.33;4.83;;;;;;;;;;6306604;22;20547;-78
2023/12/12 01:38:57;;;;;;;7.40;4.63;;;;;;;;;;6306763;22;20170;-79
2023/12/12 01:41:25;;;;;;;10.03;4.70;;;;;;;;;;6306745;22;20536;-79
2023/12/12 01:43:52;;;;;;;8.00;4.30;;;;;;;;;;6306027;22;20554;-79
2023/12/12 01:46:19;;;;;;;7.17;4.40;;;;;;;;;;6306337;22;20225;-79
2023/12/12 01:48:48;;;;;;;6.97;4.33;;;;;;;;;;6305888;22;20625;-79
2023/12/12 01:51:16;;;;;;;9.75;4.57;;;;;;;;;;6306364;22;20201;-79
2023/12/12 01:53:44;;;;;;;9.87;4.50;;;;;;;;;;6306373;22;20174;-78
2023/12/12 01:56:13;;;;;;;7.43;4.27;;;;;;;;;;6306325;22;20692;-78
2023/12/12 01:58:42;;;;;;;6.83;3.70;;;;;;;;;;6306091;22;20197;-79
2023/12/12 02:01:09;;;;;;;6.23;3.47;;;;;;;;;;6305901;22;20292;-78
2023/12/12 02:03:37;;;;;;;8.20;3.50;;;;;;;;;;6306665;22;20221;-78
2023/12/12 02:06:05;;;;;;;6.13;3.23;;;;;;;;;;6306492;22;20170;-78
2023/12/12 02:08:32;;;;;;;6.83;3.40;;;;;;;;;;6306256;22;20249;-79
2023/12/12 02:10:59;;;;;;;10.00;3.30;;;;;;;;;;6306582;22;20205;-79
2023/12/12 02:13:27;;;;;;;11.80;3.57;;;;;;;;;;6306200;22;20198;-79
2023/12/12 02:15:55;;;;;;;7.17;3.20;;;;;;;;;;6306345;22;20170;-79
2023/12/12 02:18:22;;;;;;;5.00;2.80;;;;;;;;;;6306072;22;20666;-79
2023/12/12 02:20:49;;;;;;;6.80;3.10;;;;;;;;;;6306461;22;20177;-78
2023/12/12 02:23:17;;;;;;;6.20;3.00;;;;;;;;;;6305770;22;20276;-79
2023/12/12 02:25:45;;;;;;;7.07;3.10;;;;;;;;;;6306460;22;20190;-79
2023/12/12 02:28:13;;;;;;;10.10;2.97;;;;;;;;;;6306008;22;20557;-79
2023/12/12 02:30:42;;;;;;;7.33;2.50;;;;;;;;;;6306610;22;20636;-79
2023/12/12 02:33:09;;;;;;;10.77;2.77;;;;;;;;;;6305812;22;20170;-78
2023/12/12 02:35:36;;;;;;;7.83;2.60;;;;;;;;;;6304670;22;20253;-79
2023/12/12 02:38:03;;;;;;;8.13;2.30;;;;;;;;;;6306500;22;20170;-79
2023/12/12 02:40:32;;;;;;;7.37;2.30;;;;;;;;;;6306013;22;20258;-80
2023/12/12 02:42:59;;;;;;;8.50;2.20;;;;;;;;;;6305343;22;20604;-79
2023/12/12 02:45:26;;;;;;;7.87;2.30;;;;;;;;;;6306011;22;20201;-79
2023/12/12 02:47:53;;;;;;;10.20;2.03;;;;;;;;;;6304959;22;20245;-79
2023/12/12 02:50:21;;;;;;;9.60;2.27;;;;;;;;;;6305980;22;20170;-79
2023/12/12 02:52:48;;;;;;;5.97;1.90;;;;;;;;;;6306368;22;20193;-79
2023/12/12 02:55:15;;;;;;;7.30;1.97;;;;;;;;;;6305646;22;20209;-79
2023/12/12 02:57:44;;;;;;;8.07;1.80;;;;;;;;;;6305532;22;20244;-78
2023/12/12 03:00:11;;;;;;;6.13;1.40;;;;;;;;;;6305741;22;20200;-79
2023/12/12 03:02:38;;;;;;;6.97;1.50;;;;;;;;;;6305665;22;20773;-79
2023/12/12 03:05:06;;;;;;;11.53;1.67;;;;;;;;;;6305678;22;20170;-78
2023/12/12 03:07:33;;;;;;;6.53;1.60;;;;;;;;;;6306412;22;20193;-79
2023/12/12 03:10:00;;;;;;;7.53;1.30;;;;;;;;;;6305524;22;20706;-79
2023/12/12 03:12:28;;;;;;;10.00;1.60;;;;;;;;;;6305237;22;20181;-80
2023/12/12 03:14:57;;;;;;;5.80;1.53;;;;;;;;;;6305028;22;20252;-79
2023/12/12 03:17:25;;;;;;;4.93;1.77;;;;;;;;;;6305250;22;20174;-79
2023/12/12 03:19:52;;;;;;;6.37;1.70;;;;;;;;;;6306145;22;20257;-79
2023/12/12 03:22:19;;;;;;;7.73;1.77;;;;;;;;;;6305449;22;20284;-79
2023/12/12 03:24:46;;;;;;;8.57;1.63;;;;;;;;;;6305971;22;20197;-79
2023/12/12 03:27:13;;;;;;;6.07;1.40;;;;;;;;;;6305843;22;20197;-79
2023/12/12 03:29:40;;;;;;;7.63;1.67;;;;;;;;;;6305225;22;20632;-79
2023/12/12 03:32:09;;;;;;;5.87;1.53;;;;;;;;;;6305209;22;20253;-79
2023/12/12 03:34:36;;;;;;;4.57;1.20;;;;;;;;;;6304108;22;20726;-79
2023/12/12 03:37:03;;;;;;;5.80;1.20;;;;;;;;;;6306029;22;20208;-79
2023/12/12 03:39:30;;;;;;;5.03;1.20;;;;;;;;;;6305163;22;20189;-79
2023/12/12 03:41:58;;;;;;;5.83;1.10;;;;;;;;;;6306030;22;20189;-78
2023/12/12 03:44:25;;;;;;;6.07;1.47;;;;;;;;;;6305445;22;20292;-79
2023/12/12 03:46:52;;;;;;;6.63;1.10;;;;;;;;;;6305332;22;20170;-79
2023/12/12 03:49:23;;;;;;;12.73;1.30;;;;;;;;;;6305532;22;20249;-79
2023/12/12 03:51:50;;;;;;;7.10;1.40;;;;;;;;;;6306069;22;20257;-78
2023/12/12 03:54:17;;;;;;;5.70;1.30;;;;;;;;;;6304572;22;20215;-79
2023/12/12 03:56:44;;;;;;;7.33;1.30;;;;;;;;;;6305697;22;20252;-79
2023/12/12 03:59:11;;;;;;;4.37;1.10;;;;;;;;;;6304905;22;20192;-79
2023/12/12 04:01:39;;;;;;;10.27;1.50;;;;;;;;;;6304903;22;20640;-78
2023/12/12 04:04:06;;;;;;;8.37;1.40;;;;;;;;;;6305754;22;20201;-79
2023/12/12 04:06:34;;;;;;;11.03;2.00;;;;;;;;;;6305548;22;20719;-79
2023/12/12 04:09:01;;;;;;;8.30;2.43;;;;;;;;;;6305078;22;20200;-79
2023/12/12 04:11:29;;;;;;;13.70;2.40;;;;;;;;;;6305354;22;20244;-78
2023/12/12 04:13:56;;;;;;;6.07;1.97;;;;;;;;;;6304720;22;20216;-80
2023/12/12 04:16:23;;;;;;;6.50;1.90;;;;;;;;;;6305693;22;20702;-79
2023/12/12 04:18:51;;;;;;;5.53;1.90;;;;;;;;;;6305026;22;20682;-79
2023/12/12 04:21:18;;;;;;;8.13;1.63;;;;;;;;;;6305496;22;20173;-78
2023/12/12 04:23:46;;;;;;;6.47;1.30;;;;;;;;;;6304769;22;20289;-79
2023/12/12 04:26:13;;;;;;;11.13;1.40;;;;;;;;;;6305597;22;20201;-78
2023/12/12 04:28:41;;;;;;;12.67;1.90;;;;;;;;;;6305323;22;20190;-79
2023/12/12 04:31:08;;;;;;;5.70;1.30;;;;;;;;;;6305781;22;20177;-79
2023/12/12 04:33:36;;;;;;;12.33;1.77;;;;;;;;;;6305589;22;20489;-79
2023/12/12 04:36:03;;;;;;;5.90;1.40;;;;;;;;;;6307383;22;20552;-78
2023/12/12 04:38:30;;;;;;;8.37;1.50;;;;;;;;;;6306836;22;20193;-79
2023/12/12 04:40:58;;;;;;;6.93;1.33;;;;;;;;;;6307593;22;20257;-79
2023/12/12 04:43:25;;;;;;;8.30;1.40;;;;;;;;;;6307459;22;20236;-79
2023/12/12 04:45:53;;;;;;;8.03;1.30;;;;;;;;;;6306931;22;20689;-79
2023/12/12 04:48:20;;;;;;;8.57;1.30;;;;;;;;;;6306968;22;20204;-79
2023/12/12 04:50:47;;;;;;;7.50;1.40;;;;;;;;;;6307020;22;20204;-78
2023/12/12 04:53:14;;;;;;;6.90;1.50;;;;;;;;;;6307340;22;20209;-79
2023/12/12 04:55:41;;;;;;;11.27;1.77;;;;;;;;;;6307146;22;20198;-79
2023/12/12 04:58:10;;;;;;;6.33;1.80;;;;;;;;;;6306924;22;20176;-78
2023/12/12 05:00:37;;;;;;;7.57;1.30;;;;;;;;;;6306986;22;20288;-78
2023/12/12 05:03:04;;;;;;;5.03;1.37;;;;;;;;;;6307252;22;20240;-79
2023/12/12 05:05:32;;;;;;;9.50;1.20;;;;;;;;;;6306850;22;20578;-78
2023/12/12 05:07:59;;;;;;;9.20;1.40;;;;;;;;;;6306123;22;20162;-79
2023/12/12 05:10:27;;;;;;;10.10;1.70;;;;;;;;;;6307231;22;20196;-78
2023/12/12 05:12:54;;;;;;;9.83;1.60;;;;;;;;;;6307440;22;20496;-80
2023/12/12 05:15:23;;;;;;;5.43;1.27;;;;;;;;;;6306762;22;20201;-79
2023/12/12 05:17:50;;;;;;;11.83;1.97;;;;;;;;;;6306717;22;20695;-79
2023/12/12 05:20:17;;;;;;;5.53;1.57;;;;;;;;;;6306908;22;20173;-78
2023/12/12 05:22:45;;;;;;;8.23;2.10;;;;;;;;;;6306772;22;20200;-78
2023/12/12 05:25:12;;;;;;;12.20;2.73;;;;;;;;;;6306416;22;20257;-79
2023/12/12 05:27:39;;;;;;;11.47;2.53;;;;;;;;;;6307119;22;20193;-78
2023/12/12 05:30:07;;;;;;;15.00;2.90;;;;;;;;;;6306884;22;20643;-77
2023/12/12 05:32:36;;;;;;;16.57;3.27;;;;;;;;;;6306588;22;20174;-79
2023/12/12 05:35:03;;;;;;;16.60;3.90;;;;;;;;;;6306801;22;20231;-78
2023/12/12 05:37:30;;;;;;;20.20;4.63;;;;;;;;;;6306122;22;20516;-78
2023/12/12 05:39:57;;;;;;;10.53;2.53;;;;;;;;;;6306512;22;20198;-78
2023/12/12 05:42:25;;;;;;;11.37;2.03;;;;;;;;;;6306268;22;20248;-79
2023/12/12 05:44:53;;;;;;;5.47;1.10;;;;;;;;;;6306407;22;20281;-79
2023/12/12 05:47:20;;;;;;;7.90;1.63;;;;;;;;;;6307233;22;20197;-79
2023/12/12 05:49:48;;;;;;;11.40;1.80;;;;;;;;;;6306113;22;20197;-78
2023/12/12 05:52:16;;;;;;;10.17;1.70;;;;;;;;;;6306057;22;20644;-78
2023/12/12 05:54:43;;;;;;;9.07;1.40;;;;;;;;;;6306631;22;20256;-79
2023/12/12 05:57:10;;;;;;;15.43;2.30;;;;;;;;;;6306025;22;20533;-78
2023/12/12 05:59:37;;;;;;;13.73;1.93;;;;;;;;;;6306544;22;20198;-78
2023/12/12 06:02:05;;;;;;;9.73;1.73;;;;;;;;;;6306764;22;20193;-79
2023/12/12 06:04:34;;;;;;;11.00;1.63;;;;;;;;;;6305840;22;20698;-78
2023/12/12 06:07:03;;;;;;;17.57;2.83;;;;;;;;;;6306700;22;20504;-78
2023/12/12 06:09:30;;;;;;;12.23;1.60;;;;;;;;;;6306407;22;20249;-78
2023/12/12 06:11:57;;;;;;;13.27;2.10;;;;;;;;;;6306510;22;20202;-78
2023/12/12 06:14:25;;;;;;;11.63;2.13;;;;;;;;;;6306354;22;20213;-78
2023/12/12 06:16:52;;;;;;;14.53;2.17;;;;;;;;;;6306856;22;20520;-77
2023/12/12 06:19:19;;;;;;;8.43;1.90;;;;;;;;;;6305779;22;20561;-78
2023/12/12 06:21:51;;;;;;;17.97;2.23;;;;;;;;;;6306108;22;20185;-78
2023/12/12 06:24:20;;;;;;;14.47;2.53;;;;;;;;;;6305662;22;20204;-77
2023/12/12 06:26:47;;;;;;;13.03;2.67;;;;;;;;;;6306341;22;20252;-78
2023/12/12 06:29:15;;;;;;;16.47;3.37;;;;;;;;;;6306406;22;20212;-78
2023/12/12 06:31:42;;;;;;;13.83;2.50;;;;;;;;;;6306422;22;20208;-77
2023/12/12 06:34:10;;;;;;;12.30;3.23;;;;;;;;;;6306038;22;20245;-77
2023/12/12 06:36:38;;;;;;;13.77;2.80;;;;;;;;;;6306598;22;20176;-77
2023/12/12 06:39:05;;;;;;;14.87;2.87;;;;;;;;;;6305846;22;20212;-77
2023/12/12 06:41:33;;;;;;;11.20;2.70;;;;;;;;;;6305859;22;20185;-78
2023/12/12 06:44:00;;;;;;;16.00;2.90;;;;;;;;;;6306159;22;20224;-77
2023/12/12 06:46:28;;;;;;;18.93;2.80;;;;;;;;;;6304526;22;20196;-77
2023/12/12 06:48:55;;;;;;;19.73;3.20;;;;;;;;;;6304987;22;20227;-77
2023/12/12 06:51:23;;;;;;;15.07;2.83;;;;;;;;;;6305986;22;20257;-77
2023/12/12 06:53:52;;;;;;;17.33;3.27;;;;;;;;;;6305435;22;20209;-76
2023/12/12 06:56:19;;;;;;;19.77;3.83;;;;;;;;;;6306073;22;20223;-77
2023/12/12 06:58:48;;;;;;;16.83;2.83;;;;;;;;;;6306052;22;20651;-77
2023/12/12 07:01:15;;;;;;;15.87;2.93;;;;;;;;;;6305699;22;20225;-77
2023/12/12 07:03:42;;;;;;;18.57;2.50;;;;;;;;;;6305254;22;20598;-76
2023/12/12 07:06:10;;;;;;;19.53;3.17;;;;;;;;;;6306039;22;20177;-78
2023/12/12 07:08:37;;;;;;;16.13;3.30;;;;;;;;;;6305482;22;20650;-77
2023/12/12 07:11:04;;;;;;;16.27;2.57;;;;;;;;;;6306123;22;20170;-77
2023/12/12 07:13:32;;;;;;;22.87;2.80;;;;;;;;;;6306242;22;20507;-77
2023/12/12 07:16:01;;;;;;;20.00;3.30;;;;;;;;;;6305809;22;20508;-77
2023/12/12 07:18:28;;;;;;;18.00;3.57;;;;;;;;;;6305427;22;20201;-77
2023/12/12 07:20:55;;;;;;;20.73;3.23;;;;;;;;;;6305940;22;20245;-76
2023/12/12 07:23:22;;;;;;;18.27;2.80;;;;;;;;;;6305231;22;20170;-77
2023/12/12 07:25:49;;;;;;;16.70;2.73;;;;;;;;;;6305217;22;20217;-77
2023/12/12 07:28:16;;;;;;;20.53;3.43;;;;;;;;;;6306205;22;20248;-77
2023/12/12 07:30:44;;;;;;;20.80;3.63;;;;;;;;;;6305818;22;20178;-76
2023/12/12 07:33:13;;;;;;;20.30;3.57;;;;;;;;;;6305521;22;20173;-76
2023/12/12 07:35:40;;;;;;;19.23;3.00;;;;;;;;;;6305179;22;20204;-76
2023/12/12 07:38:07;;;;;;;23.03;3.40;;;;;;;;;;6305592;22;20223;-77
2023/12/12 07:40:34;;;;;;;19.63;2.57;;;;;;;;;;6305818;22;20190;-77
2023/12/12 07:43:02;;;;;;;27.23;3.17;;;;;;;;;;6305984;22;20169;-76
2023/12/12 07:45:29;;;;;;;18.23;2.70;;;;;;;;;;6306074;22;20225;-76
2023/12/12 07:47:56;;;;;;;21.57;3.60;;;;;;;;;;6304779;22;20201;-75
2023/12/12 07:50:24;;;;;;;17.63;2.87;;;;;;;;;;6305405;22;20201;-77
2023/12/12 07:52:52;;;;;;;20.47;3.43;;;;;;;;;;6305600;22;20206;-77
2023/12/12 07:55:19;;;;;;;23.20;3.57;;;;;;;;;;6305755;22;20176;-77
2023/12/12 07:57:47;;;;;;;22.87;3.30;;;;;;;;;;6305317;22;20170;-77
2023/12/12 08:00:14;;;;;;;17.60;2.73;;;;;;;;;;6305641;22;20197;-77
2023/12/12 08:02:42;;;;;;;19.47;3.87;;;;;;;;;;6305178;22;20189;-77
2023/12/12 08:05:10;;;;;;;30.13;4.17;;;;;;;;;;6305190;22;20201;-76
2023/12/12 08:07:38;;;;;;;22.37;5.13;;;;;;;;;;6305389;22;20197;-77
2023/12/12 08:10:06;;;;;;;18.87;3.67;;;;;;;;;;6305872;22;20169;-76
2023/12/12 08:12:33;;;;;;;16.70;3.57;;;;;;;;;;6305312;22;20644;-77
2023/12/12 08:15:00;;;;;;;24.17;4.23;;;;;;;;;;6304734;22;20205;-76
2023/12/12 08:17:28;;;;;;;25.53;4.43;;;;;;;;;;6305489;22;20560;-77
2023/12/12 08:19:55;;;;;;;25.90;3.87;;;;;;;;;;6305410;22;20565;-77
2023/12/12 08:22:22;;;;;;;20.90;3.47;;;;;;;;;;6305269;22;20636;-77
2023/12/12 08:24:51;;;;;;;27.07;4.07;;;;;;;;;;6305399;22;20201;-76
2023/12/12 08:27:18;;;;;;;22.83;4.20;;;;;;;;;;6305187;22;20720;-77
2023/12/12 08:29:46;;;;;;;22.00;3.47;;;;;;;;;;6305172;22;20513;-76
2023/12/12 08:32:13;;;;;;;23.57;3.90;;;;;;;;;;6305567;22;20172;-77
2023/12/12 08:34:40;;;;;;;18.00;3.07;;;;;;;;;;6305118;22;20205;-76
2023/12/12 08:37:07;;;;;;;18.40;2.80;;;;;;;;;;6305030;22;20216;-76
2023/12/12 08:39:35;;;;;;;20.03;3.13;;;;;;;;;;6305557;22;20170;-78
2023/12/12 08:42:03;;;;;;;20.37;3.50;;;;;;;;;;6305504;22;20248;-77
2023/12/12 08:44:31;;;;;;;16.97;3.30;;;;;;;;;;6304642;22;20280;-77
2023/12/12 08:46:58;;;;;;;25.23;3.30;;;;;;;;;;6305474;22;20197;-76
2023/12/12 08:49:26;;;;;;;22.47;3.10;;;;;;;;;;6305140;22;20523;-77
2023/12/12 08:51:53;;;;;;;23.37;4.40;;;;;;;;;;6305422;22;20686;-76
2023/12/12 08:54:21;;;;;;;26.13;4.17;;;;;;;;;;6305146;22;20208;-76
2023/12/12 08:56:52;;;;;;;23.60;3.57;;;;;;;;;;6305139;22;20535;-76
2023/12/12 08:59:22;;;;;;;25.87;3.97;;;;;;;;;;6304991;22;20666;-76
2023/12/12 09:01:49;;;;;;;28.77;4.00;;;;;;;;;;6305482;22;20166;-76
2023/12/12 09:04:16;;;;;;;28.40;3.80;;;;;;;;;;6304808;22;20201;-76
2023/12/12 09:06:44;;;;;;;24.87;4.00;;;;;;;;;;6304858;22;20202;-77
2023/12/12 09:09:12;;;;;;;23.43;3.87;;;;;;;;;;6305085;22;20209;-76
2023/12/12 09:11:39;;;;;;;21.60;3.60;;;;;;;;;;6305188;22;20166;-75
2023/12/12 09:14:06;;;;;;;28.93;3.57;;;;;;;;;;6304846;22;20261;-77
2023/12/12 09:16:35;;;;;;;17.70;3.87;;;;;;;;;;6304998;22;20599;-77
2023/12/12 09:19:02;;;;;;;23.70;3.97;;;;;;;;;;6305452;22;20194;-76
2023/12/12 09:21:29;;;;;;;19.53;3.53;;;;;;;;;;6306390;22;20165;-76
2023/12/12 09:23:57;;;;;;;19.77;3.50;;;;;;;;;;6306977;22;20170;-76
2023/12/12 09:26:24;;;;;;;22.60;3.90;;;;;;;;;;6307446;22;20197;-76
2023/12/12 09:28:51;;;;;;;28.37;4.37;;;;;;;;;;6306292;22;20193;-76
2023/12/12 09:31:26;;;;;;;19.40;3.93;;;;;;;;;;6306544;22;20660;-76
2023/12/12 09:33:54;;;;;;;22.63;3.40;;;;;;;;;;6306974;22;20173;-79
2023/12/12 09:36:22;;;;;;;25.47;4.03;;;;;;;;;;6306871;22;20185;-75
2023/12/12 09:38:49;;;;;;;27.93;3.90;;;;;;;;;;6306952;22;20509;-75
2023/12/12 09:41:17;;;;;;;27.70;4.63;;;;;;;;;;6306656;22;20170;-78
2023/12/12 09:43:46;;;;;;;22.23;3.57;;;;;;;;;;6306467;22;20166;-78
2023/12/12 09:46:13;;;;;;;22.03;4.13;;;;;;;;;;6306609;22;20204;-78
2023/12/12 09:48:41;;;;;;;17.57;4.33;;;;;;;;;;6306589;22;20209;-77
2023/12/12 09:51:10;;;;;;;18.20;3.30;;;;;;;;;;6306386;22;20194;-78
2023/12/12 09:53:39;;;;;;;31.17;3.60;;;;;;;;;;6306468;22;20209;-76
2023/12/12 09:56:08;;;;;;;25.07;3.73;;;;;;;;;;6307184;22;20176;-78
2023/12/12 09:58:35;;;;;;;19.97;4.77;;;;;;;;;;6305749;22;20627;-75
2023/12/12 10:01:03;;;;;;;28.77;4.87;;;;;;;;;;6306509;22;20284;-77
2023/12/12 10:03:32;;;;;;;20.60;3.80;;;;;;;;;;6307055;22;20223;-77
2023/12/12 10:06:01;;;;;;;20.10;3.97;;;;;;;;;;6306330;22;20671;-77
2023/12/12 10:08:30;;;;;;;26.63;4.27;;;;;;;;;;6306534;22;20193;-79
2023/12/12 10:10:57;;;;;;;22.63;3.37;;;;;;;;;;6306139;22;20252;-78
2023/12/12 10:13:24;;;;;;;25.83;4.00;;;;;;;;;;6306646;22;20186;-76
2023/12/12 10:15:51;;;;;;;25.43;4.00;;;;;;;;;;6307018;22;20194;-77
2023/12/12 10:18:18;;;;;;;18.93;2.97;;;;;;;;;;6306555;22;20197;-76
2023/12/12 10:20:45;;;;;;;17.83;3.70;;;;;;;;;;6306453;22;20177;-76
2023/12/12 10:23:13;;;;;;;26.47;4.17;;;;;;;;;;6306546;22;20572;-79
2023/12/12 10:25:49;;;;;;;25.20;3.90;;;;;;;;;;6305619;22;20611;-78
2023/12/12 10:28:16;;;;;;;25.50;4.17;;;;;;;;;;6305365;22;20244;-78
2023/12/12 10:30:43;;;;;;;23.17;4.87;;;;;;;;;;6306442;22;20197;-78
2023/12/12 10:33:14;;;;;;;25.67;3.93;;;;;;;;;;6307023;22;20193;-78
2023/12/12 10:35:45;;;;;;;26.17;4.73;;;;;;;;;;6306306;22;20170;-76
2023/12/12 10:38:13;;;;;;;17.17;3.90;;;;;;;;;;6306403;22;20328;-77
2023/12/12 10:40:42;;;;;;;18.67;3.03;;;;;;;;;;6305576;22;20170;-79
2023/12/12 10:43:09;;;;;;;20.60;4.37;;;;;;;;;;6306190;22;20174;-77
2023/12/12 10:45:40;;;;;;;18.93;3.13;;;;;;;;;;6306208;22;20686;-76
2023/12/12 10:48:08;;;;;;;21.60;3.73;;;;;;;;;;6306419;22;20205;-77
2023/12/12 10:50:35;;;;;;;19.13;3.13;;;;;;;;;;6306148;22;20248;-78
2023/12/12 10:53:03;;;;;;;21.70;3.60;;;;;;;;;;6306265;22;20197;-78
2023/12/12 10:55:30;;;;;;;18.37;3.83;;;;;;;;;;6305706;22;20202;-78
2023/12/12 10:58:00;;;;;;;18.37;4.17;;;;;;;;;;6306210;22;20193;-78
2023/12/12 11:00:28;;;;;;;16.60;3.63;;;;;;;;;;6305811;22;20240;-78
2023/12/12 11:02:56;;;;;;;22.63;3.90;;;;;;;;;;6306080;22;20252;-77
2023/12/12 11:05:23;;;;;;;16.40;3.30;;;;;;;;;;6306476;22;20280;-76
2023/12/12 11:07:51;;;;;;;22.47;4.07;;;;;;;;;;6305929;22;20636;-79
2023/12/12 11:10:21;;;;;;;18.47;4.30;;;;;;;;;;6305418;22;20249;-76
2023/12/12 11:12:50;;;;;;;17.57;3.70;;;;;;;;;;6306193;22;20170;-75
2023/12/12 11:15:20;;;;;;;17.33;3.93;;;;;;;;;;6305701;22;20208;-77
2023/12/12 11:17:50;;;;;;;18.60;3.17;;;;;;;;;;6305829;22;20190;-76
2023/12/12 11:20:18;;;;;;;17.97;3.20;;;;;;;;;;6305861;22;20173;-78
2023/12/12 11:22:47;;;;;;;17.03;3.67;;;;;;;;;;6306096;22;20253;-77
2023/12/12 11:25:16;;;;;;;18.47;3.93;;;;;;;;;;6305232;22;20676;-76
2023/12/12 11:27:46;;;;;;;16.90;3.30;;;;;;;;;;6305826;22;20557;-76
2023/12/12 11:30:13;;;;;;;20.23;3.70;;;;;;;;;;6306076;22;20253;-78
2023/12/12 11:32:42;;;;;;;16.77;3.90;;;;;;;;;;6306362;22;20193;-77
2023/12/12 11:35:25;;;;;;;16.27;3.47;;;;;;;;;;6305372;22;20580;-78
2023/12/12 11:37:54;;;;;;;19.23;3.80;;;;;;;;;;6305294;22;20689;-78
2023/12/12 11:40:23;;;;;;;18.90;3.53;;;;;;;;;;6306063;22;20177;-79
2023/12/12 11:42:52;;;;;;;13.23;3.07;;;;;;;;;;6304960;22;20641;-76
2023/12/12 11:45:30;;;;;;;14.13;3.35;;;;;;;;;;6305739;22;20202;-78
2023/12/12 11:48:00;;;;;;;14.47;2.93;;;;;;;;;;6305823;22;20201;-78
2023/12/12 11:50:33;;;;;;;15.85;3.47;;;;;;;;;;6305766;22;20170;-79
2023/12/12 11:53:04;;;;;;;15.90;3.40;;;;;;;;;;6305279;22;20204;-78
2023/12/12 11:55:33;;;;;;;16.80;3.75;;;;;;;;;;6305702;22;20227;-78
2023/12/12 11:58:00;;;;;;;17.37;3.53;;;;;;;;;;6305538;22;20249;-77
2023/12/12 12:00:31;;;;;;;13.60;2.87;;;;;;;;;;6305443;22;20194;-78
2023/12/12 12:03:00;;;;;;;16.47;3.07;;;;;;;;;;6305130;22;20636;-79
2023/12/12 12:05:27;;;;;;;16.20;3.27;;;;;;;;;;6305361;22;20671;-78
2023/12/12 12:07:56;;;;;;;18.60;3.20;;;;;;;;;;6305256;22;20552;-78
2023/12/12 12:10:23;;;;;;;18.53;3.87;;;;;;;;;;6305616;22;20172;-79
2023/12/12 12:12:54;;;;;;;13.47;2.60;;;;;;;;;;6305110;22;20268;-79
2023/12/12 12:15:22;;;;;;;16.45;4.15;;;;;;;;;;6305368;22;20166;-75
2023/12/12 12:17:49;;;;;;;16.77;3.30;;;;;;;;;;6305631;22;20539;-76
2023/12/12 12:20:18;;;;;;;13.80;2.83;;;;;;;;;;6305339;22;20711;-78
2023/12/12 12:22:45;;;;;;;14.35;3.20;;;;;;;;;;6304748;22;20625;-79
2023/12/12 12:25:12;;;;;;;20.50;3.22;;;;;;;;;;6305351;22;20711;-78
2023/12/12 12:27:49;;;;;;;17.70;3.50;;;;;;;;;;6305535;22;20188;-79
2023/12/12 12:30:18;;;;;;;25.33;3.25;;;;;;;;;;6306100;22;20172;-79
2023/12/12 12:32:57;;;;;;;21.73;3.63;;;;;;;;;;6305397;22;20200;-78
2023/12/12 12:35:26;;;;;;;20.48;2.95;;;;;;;;;;6304941;22;20516;-79
2023/12/12 12:37:53;;;;;;;18.13;3.15;;;;;;;;;;6304962;22;20210;-79
2023/12/12 12:40:32;;;;;;;16.20;3.22;;;;;;;;;;6305205;22;20575;-78
2023/12/12 12:43:00;;;;;;;18.13;3.60;;;;;;;;;;6305273;22;20180;-79
2023/12/12 12:45:29;;;;;;;21.50;3.47;;;;;;;;;;6305416;22;20209;-79
2023/12/12 12:47:56;;;;;;;22.13;4.00;;;;;;;;;;6305160;22;20648;-78
2023/12/12 12:50:23;;;;;;;17.75;3.53;;;;;;;;;;6305172;22;20193;-78
2023/12/12 12:52:51;;;;;;;20.23;3.33;;;;;;;;;;6305124;22;20624;-79
2023/12/12 12:55:19;;;;;;;14.68;3.45;;;;;;;;;;6306705;22;20201;-78
2023/12/12 12:57:46;;;;;;;18.42;3.45;;;;;;;;;;6307752;22;20554;-78
2023/12/12 13:00:14;;;;;;;15.98;3.20;;;;;;;;;;6307370;22;20604;-79
2023/12/12 13:02:41;;;;;;;17.13;3.28;;;;;;;;;;6306953;22;20215;-78
2023/12/12 13:05:09;;;;;;;17.45;3.45;;;;;;;;;;6306595;22;20209;-79
2023/12/12 13:07:36;;;;;;;17.75;3.17;;;;;;;;;;6307050;22;20166;-79
2023/12/12 13:10:06;;;;;;;18.20;3.58;;;;;;;;;;6307427;22;20253;-79
2023/12/12 13:12:33;;;;;;;16.15;3.25;;;;;;;;;;6306935;22;20174;-79
2023/12/12 13:15:00;;;;;;;19.52;3.60;;;;;;;;;;6307666;22;20215;-78
2023/12/12 13:17:28;;;;;;;17.45;3.08;;;;;;;;;;6306888;22;20701;-79
2023/12/12 13:19:56;;;;;;;14.40;2.88;;;;;;;;;;6306331;22;20612;-78
2023/12/12 13:22:23;;;;;;;17.05;2.90;;;;;;;;;;6307359;22;20170;-79
2023/12/12 13:24:52;;;;;;;16.63;2.67;;;;;;;;;;6307173;22;20189;-78
2023/12/12 13:27:20;;;;;;;17.60;2.63;;;;;;;;;;6307023;22;20244;-79
2023/12/12 13:29:47;;;;;;;10.40;2.45;;;;;;;;;;6307073;22;20193;-78
2023/12/12 13:32:14;;;;;;;11.40;2.08;;;;;;;;;;6306693;22;20177;-79
2023/12/12 13:34:42;;;;;;;10.73;2.13;;;;;;;;;;6306711;22;20170;-79
2023/12/12 13:37:09;;;;;;;10.70;1.80;;;;;;;;;;6306989;22;20213;-80
2023/12/12 13:39:36;;;;;;;8.90;1.65;;;;;;;;;;6307432;22;20185;-79
2023/12/12 13:42:04;;;;;;;9.30;1.65;;;;;;;;;;6307082;22;20194;-79
2023/12/12 13:44:33;;;;;;;13.98;2.38;;;;;;;;;;6307105;22;20174;-78
2023/12/12 13:47:00;;;;;;;8.27;1.85;;;;;;;;;;6306560;22;20236;-79
2023/12/12 13:49:27;;;;;;;9.45;1.70;;;;;;;;;;6306598;22;20249;-78
2023/12/12 13:51:54;;;;;;;8.15;1.77;;;;;;;;;;6306595;22;20253;-79
2023/12/12 13:54:21;;;;;;;9.15;1.50;;;;;;;;;;6306795;22;20194;-79
2023/12/12 13:56:49;;;;;;;8.77;1.98;;;;;;;;;;6307018;22;20166;-78
2023/12/12 13:59:16;;;;;;;11.43;2.00;;;;;;;;;;6306662;22;20557;-78
2023/12/12 14:01:45;;;;;;;11.00;2.00;;;;;;;;;;6306729;22;20192;-78
2023/12/12 14:04:12;;;;;;;11.27;1.90;;;;;;;;;;6306886;22;20199;-78
2023/12/12 14:06:39;;;;;;;14.07;3.00;;;;;;;;;;6305788;22;20209;-78
2023/12/12 14:09:06;;;;;;;11.47;2.10;;;;;;;;;;6306169;22;20212;-78
2023/12/12 14:11:33;;;;;;;11.40;2.00;;;;;;;;;;6306894;22;20220;-78
2023/12/12 14:14:01;;;;;;;12.87;2.17;;;;;;;;;;6306786;22;20197;-78
2023/12/12 14:16:28;;;;;;;17.30;2.87;;;;;;;;;;6307102;22;20169;-78
2023/12/12 14:18:56;;;;;;;15.73;2.67;;;;;;;;;;6306009;22;20190;-77
2023/12/12 14:21:23;;;;;;;13.03;3.00;;;;;;;;;;6306669;22;20208;-77
2023/12/12 14:23:50;;;;;;;15.33;2.37;;;;;;;;;;6306421;22;20254;-78
2023/12/12 14:26:22;;;;;;;13.30;2.77;;;;;;;;;;6306661;22;20233;-78
2023/12/12 14:28:49;;;;;;;15.50;2.80;;;;;;;;;;6306521;22;20208;-77
2023/12/12 14:31:17;;;;;;;13.77;3.47;;;;;;;;;;6306372;22;20201;-78
2023/12/12 14:33:45;;;;;;;14.83;3.17;;;;;;;;;;6305888;22;20766;-78
2023/12/12 14:36:14;;;;;;;13.87;3.37;;;;;;;;;;6306467;22;20554;-78